Time;durP1;ratioP1;P1;durP2;ratioP2;P2;SDS_P1;SDS_P2;PMS_P1;PMS_P2;Temp;Humidity;BMP_temperature;BMP_pressure;BME280_temperature;BME280_humidity;BME280_pressure;Samples;Min_cycle;Max_cycle;Signal;HPM_P1;HPM_P2
2021/09/08 00:00:47;;;;;;;0.10;0.10;;;;;;;20.47;59.20;102093.25;5034998;28;20026;-85
2021/09/08 00:03:13;;;;;;;0.32;0.32;;;;;;;20.44;59.15;102088.00;5035483;28;20069;-82
2021/09/08 00:05:40;;;;;;;0.00;0.00;;;;;;;20.42;59.26;102084.50;5034862;28;20022;-83
2021/09/08 00:08:07;;;;;;;0.10;0.10;;;;;;;20.40;59.36;102080.97;5033738;28;20084;-83
2021/09/08 00:10:33;;;;;;;0.63;0.63;;;;;;;20.39;59.06;102085.50;5030490;28;20073;-84
2021/09/08 00:13:17;;;;;;;0.10;0.10;;;;;;;20.40;59.22;102081.88;5034620;28;20492;-83
2021/09/08 00:15:47;;;;;;;0.52;0.38;;;;;;;20.36;59.27;102080.22;5034014;28;20120;-84
2021/09/08 00:18:14;;;;;;;0.10;0.10;;;;;;;20.34;59.32;102072.22;5030837;28;20554;-82
2021/09/08 00:20:51;;;;;;;0.10;0.10;;;;;;;20.33;59.18;102065.06;5025856;28;20033;-84
2021/09/08 00:23:19;;;;;;;0.10;0.10;;;;;;;20.27;59.29;102069.84;5034466;28;20476;-83
2021/09/08 00:25:46;;;;;;;0.10;0.10;;;;;;;20.24;59.42;102068.16;5034466;28;20751;-82
2021/09/08 00:28:12;;;;;;;1.38;0.30;;;;;;;20.20;59.58;102069.25;5034280;28;20058;-83
2021/09/08 00:30:39;;;;;;;1.00;0.95;;;;;;;20.17;59.34;102058.59;5034470;28;20069;-83
2021/09/08 00:33:11;;;;;;;0.10;0.10;;;;;;;20.16;59.29;102056.84;5034770;28;20029;-82
2021/09/08 00:35:38;;;;;;;0.32;0.32;;;;;;;20.12;59.50;102063.28;5034532;28;20392;-82
2021/09/08 00:38:08;;;;;;;0.17;0.17;;;;;;;20.09;59.56;102061.59;5034268;28;20052;-83
2021/09/08 00:40:35;;;;;;;0.25;0.25;;;;;;;20.07;59.94;102059.91;5034254;28;20046;-83
2021/09/08 00:43:02;;;;;;;8.90;2.50;;;;;;;20.07;59.48;102059.91;5034046;28;20033;-83
2021/09/08 00:45:28;;;;;;;0.20;0.20;;;;;;;20.04;59.55;102059.09;5034314;28;20033;-83
2021/09/08 00:47:55;;;;;;;0.60;0.60;;;;;;;20.02;59.57;102057.41;5033989;28;20080;-83
2021/09/08 00:50:21;;;;;;;0.05;0.05;;;;;;;20.00;59.84;102049.41;5034447;28;20030;-84
2021/09/08 00:52:49;;;;;;;2.03;0.63;;;;;;;19.98;59.86;102043.19;5034550;28;20064;-82
2021/09/08 00:55:16;;;;;;;0.35;0.35;;;;;;;19.98;59.73;102045.03;5033975;28;20039;-82
2021/09/08 00:57:45;;;;;;;0.13;0.13;;;;;;;19.99;59.66;102034.19;5033554;28;20033;-81
2021/09/08 01:00:12;;;;;;;0.10;0.10;;;;;;;19.96;59.50;102037.03;5033168;28;20044;-83
2021/09/08 01:02:40;;;;;;;0.00;0.00;;;;;;;19.97;59.35;102033.38;5026930;28;20042;-84
2021/09/08 01:05:07;;;;;;;0.10;0.10;;;;;;;19.94;59.62;102036.19;5033844;28;20134;-84
2021/09/08 01:07:34;;;;;;;0.00;0.00;;;;;;;19.94;59.26;102036.19;5033534;28;20030;-84
2021/09/08 01:10:01;;;;;;;0.28;0.28;;;;;;;19.92;59.56;102032.69;5033634;28;20061;-83
2021/09/08 01:12:27;;;;;;;0.10;0.10;;;;;;;19.94;59.67;102036.19;5033351;28;20026;-83
2021/09/08 01:14:54;;;;;;;0.20;0.20;;;;;;;19.90;59.58;102031.88;5033762;28;20029;-84
2021/09/08 01:17:20;;;;;;;2.40;0.88;;;;;;;19.90;59.86;102022.94;5034121;28;20030;-83
2021/09/08 01:19:47;;;;;;;0.20;0.20;;;;;;;19.86;59.64;102024.88;5033376;28;20029;-84
2021/09/08 01:22:13;;;;;;;0.28;0.28;;;;;;;19.83;59.65;102019.63;5033620;28;20109;-84
2021/09/08 01:24:41;;;;;;;0.10;0.10;;;;;;;19.81;59.58;102018.75;5033662;28;20108;-84
2021/09/08 01:27:08;;;;;;;0.25;0.25;;;;;;;19.77;59.76;102012.63;5033317;28;20036;-84
2021/09/08 01:29:34;;;;;;;0.00;0.00;;;;;;;19.77;59.85;102014.47;5033644;28;20103;-84
2021/09/08 01:32:00;;;;;;;0.30;0.30;;;;;;;19.72;59.55;102015.50;5033703;28;20024;-84
2021/09/08 01:34:28;;;;;;;0.05;0.05;;;;;;;19.70;59.82;102021.88;5033920;28;20022;-83
2021/09/08 01:36:54;;;;;;;0.10;0.10;;;;;;;19.69;59.99;102020.16;5033400;28;20100;-82
2021/09/08 01:39:23;;;;;;;0.52;0.52;;;;;;;19.68;59.93;102013.88;5033068;28;20037;-82
2021/09/08 01:41:51;;;;;;;0.20;0.20;;;;;;;19.69;59.93;102009.41;5026081;28;20079;-83
2021/09/08 01:44:19;;;;;;;0.93;0.60;;;;;;;19.68;59.97;102018.38;5022011;28;20017;-82
2021/09/08 01:46:47;;;;;;;0.20;0.20;;;;;;;19.67;59.91;102011.25;5027008;28;20500;-82
2021/09/08 01:49:14;;;;;;;0.10;0.10;;;;;;;19.66;60.16;102010.38;5022348;28;20033;-82
2021/09/08 01:51:40;;;;;;;0.10;0.10;;;;;;;19.65;59.72;102014.00;5033535;28;20064;-82
2021/09/08 01:54:07;;;;;;;0.55;0.55;;;;;;;19.68;59.72;102004.94;5026574;28;20057;-82
2021/09/08 01:56:34;;;;;;;0.10;0.10;;;;;;;19.63;59.96;102006.94;5027457;28;20052;-82
2021/09/08 01:59:00;;;;;;;0.00;0.00;;;;;;;19.62;59.91;102003.38;5020605;28;20034;-82
2021/09/08 02:01:26;;;;;;;0.30;0.30;;;;;;;19.63;59.42;101994.38;5033017;28;20030;-82
2021/09/08 02:03:53;;;;;;;0.10;0.10;;;;;;;19.59;59.69;101995.44;5026230;28;20038;-82
2021/09/08 02:06:25;;;;;;;0.43;0.43;;;;;;;19.58;60.00;102001.75;5032630;28;20029;-83
2021/09/08 02:08:54;;;;;;;0.10;0.10;;;;;;;19.58;60.07;101995.47;5030875;28;20041;-82
2021/09/08 02:11:44;;;;;;;;;;;;;;;;;;;;;
2021/09/08 02:14:13;;;;;;;0.10;0.10;;;;;;;19.54;59.97;101995.59;5031499;28;20361;-83
2021/09/08 02:16:39;;;;;;;0.10;0.10;;;;;;;19.53;59.82;102003.75;5032168;28;20033;-82
2021/09/08 02:19:06;;;;;;;0.10;0.10;;;;;;;19.54;59.68;102008.19;5030329;28;20156;-81
2021/09/08 02:21:33;;;;;;;0.82;0.82;;;;;;;19.55;59.70;102004.53;5031140;28;20029;-82
2021/09/08 02:23:59;;;;;;;0.43;0.43;;;;;;;19.54;59.45;101995.59;5036996;28;20033;-82
2021/09/08 02:26:25;;;;;;;0.10;0.10;;;;;;;19.52;59.79;102001.97;5030598;28;20038;-82
2021/09/08 02:28:56;;;;;;;0.20;0.20;;;;;;;19.50;59.99;102002.06;5020628;28;20034;-83
2021/09/08 02:31:24;;;;;;;1.73;0.32;;;;;;;19.49;59.88;101994.03;5034356;28;20566;-83
2021/09/08 02:33:51;;;;;;;0.40;0.40;;;;;;;19.49;59.89;102002.09;5020979;28;20469;-82
2021/09/08 02:36:20;;;;;;;0.03;0.03;;;;;;;19.48;59.73;101992.31;5026122;28;20026;-82
2021/09/08 02:38:47;;;;;;;0.22;0.22;;;;;;;19.47;59.62;101993.22;5038021;28;20440;-82
2021/09/08 02:41:13;;;;;;;0.70;0.70;;;;;;;19.45;59.60;101993.28;5036340;28;20498;-82
2021/09/08 02:43:40;;;;;;;0.65;0.63;;;;;;;19.46;59.56;101996.84;5036549;28;20029;-81
2021/09/08 02:46:06;;;;;;;0.08;0.08;;;;;;;19.45;59.66;101990.63;5036607;28;20029;-82
2021/09/08 02:48:34;;;;;;;1.67;0.75;;;;;;;19.45;59.64;101995.09;5037039;28;20365;-84
2021/09/08 02:51:02;;;;;;;0.10;0.10;;;;;;;19.44;59.68;101993.34;5037211;28;20021;-84
2021/09/08 02:53:33;;;;;;;0.10;0.10;;;;;;;19.45;59.63;101990.63;5036725;28;20040;-83
2021/09/08 02:56:00;;;;;;;0.55;0.40;;;;;;;19.42;59.72;101984.47;5036427;28;20419;-84
2021/09/08 02:58:27;;;;;;;0.50;0.30;;;;;;;19.37;59.77;101980.13;5036100;28;20028;-83
2021/09/08 03:00:54;;;;;;;0.10;0.10;;;;;;;19.35;59.96;101982.03;5036473;28;20113;-84
2021/09/08 03:03:21;;;;;;;0.20;0.20;;;;;;;19.38;59.52;101968.44;5035891;28;20029;-84
2021/09/08 03:05:48;;;;;;;0.40;0.40;;;;;;;19.35;59.70;101979.34;5036300;28;20361;-83
2021/09/08 03:08:15;;;;;;;0.10;0.10;;;;;;;19.35;59.84;101989.19;5036732;28;20065;-83
2021/09/08 03:10:43;;;;;;;0.25;0.25;;;;;;;19.33;59.74;101978.50;5036116;28;20028;-83
2021/09/08 03:13:15;;;;;;;0.30;0.30;;;;;;;19.36;59.68;101974.81;5035355;28;20036;-83
2021/09/08 03:15:44;;;;;;;0.10;0.10;;;;;;;19.29;59.76;101973.31;5035241;28;20061;-82
2021/09/08 03:18:10;;;;;;;0.10;0.10;;;;;;;19.28;59.78;101968.88;5034278;28;20040;-83
2021/09/08 03:20:36;;;;;;;0.47;0.47;;;;;;;19.27;59.71;101959.94;5034287;28;20034;-82
2021/09/08 03:23:03;;;;;;;0.10;0.10;;;;;;;19.21;60.17;101968.25;5034544;28;20077;-84
2021/09/08 03:25:30;;;;;;;0.00;0.00;;;;;;;19.16;60.08;101967.53;5031289;28;20017;-83
2021/09/08 03:27:57;;;;;;;0.80;0.80;;;;;;;19.18;59.95;101976.44;5033881;28;20075;-83
2021/09/08 03:30:24;;;;;;;0.80;0.55;;;;;;;19.15;60.09;101972.06;5034108;28;20117;-82
2021/09/08 03:32:50;;;;;;;0.10;0.10;;;;;;;19.15;59.98;101971.16;5034780;28;20039;-84
2021/09/08 03:35:25;;;;;;;0.20;0.20;;;;;;;19.20;60.03;101964.69;5034207;28;20057;-85
2021/09/08 03:37:51;;;;;;;0.10;0.10;;;;;;;19.15;60.06;101965.78;5034121;28;20037;-83
2021/09/08 03:40:18;;;;;;;0.00;0.00;;;;;;;19.14;60.06;101964.91;5033748;28;20037;-84
2021/09/08 03:42:45;;;;;;;0.25;0.25;;;;;;;19.13;60.15;101967.63;5034087;28;20041;-83
2021/09/08 03:45:14;;;;;;;1.02;0.70;;;;;;;19.13;59.98;101967.63;5027439;28;20037;-83
2021/09/08 03:47:44;;;;;;;0.10;0.10;;;;;;;19.12;60.01;101961.41;5028894;28;20029;-83
2021/09/08 03:50:11;;;;;;;0.03;0.03;;;;;;;19.10;59.96;101960.56;5032282;28;20033;-83
2021/09/08 03:52:38;;;;;;;0.10;0.10;;;;;;;19.10;59.89;101957.03;5039580;22;20049;-93
2021/09/08 03:55:06;;;;;;;0.17;0.17;;;;;;;19.07;59.94;101947.28;5014828;28;20093;-94
2021/09/08 03:57:32;;;;;;;0.30;0.30;;;;;;;19.04;59.89;101942.91;5015295;28;20030;-93
2021/09/08 03:59:59;;;;;;;0.30;0.30;;;;;;;19.02;60.04;101939.38;5011440;28;20452;-89
2021/09/08 04:02:26;;;;;;;0.20;0.20;;;;;;;19.00;60.05;101933.19;5014298;28;20874;-93
2021/09/08 04:04:52;;;;;;;0.50;0.50;;;;;;;18.98;60.12;101937.75;5014900;28;20156;-88
2021/09/08 04:07:18;;;;;;;0.30;0.30;;;;;;;18.97;60.10;101933.31;5011087;28;20465;-94
2021/09/08 04:09:45;;;;;;;0.10;0.10;;;;;;;18.94;60.37;101935.25;5013876;28;20022;-93
2021/09/08 04:12:11;;;;;;;0.10;0.10;;;;;;;18.92;60.49;101929.94;5013255;28;20052;-94
2021/09/08 04:14:38;;;;;;;0.50;0.50;;;;;;;18.90;60.54;101923.69;5014141;28;20153;-95
2021/09/08 04:17:04;;;;;;;3.97;1.52;;;;;;;18.88;60.38;101925.59;5014164;28;20061;-94
2021/09/08 04:19:30;;;;;;;1.02;1.02;;;;;;;18.82;60.85;101925.81;5014640;28;20080;-94
2021/09/08 04:21:57;;;;;;;1.38;1.33;;;;;;;18.80;60.56;101927.69;5013236;28;20033;-92
2021/09/08 04:24:23;;;;;;;0.98;0.98;;;;;;;18.77;60.83;101926.00;5012247;28;20405;-93
2021/09/08 04:26:49;;;;;;;0.50;0.50;;;;;;;18.75;60.84;101920.69;5014771;28;20030;-94
2021/09/08 04:29:16;;;;;;;0.05;0.05;;;;;;;18.75;60.74;101920.69;5014988;28;20040;-94
2021/09/08 04:31:42;;;;;;;0.20;0.20;;;;;;;18.74;60.69;101928.78;5015618;28;20026;-93
2021/09/08 04:34:08;;;;;;;0.10;0.10;;;;;;;18.70;60.67;101925.31;5014611;28;20037;-93
2021/09/08 04:36:35;;;;;;;0.73;0.43;;;;;;;18.71;60.75;101934.25;5014562;28;20026;-94
2021/09/08 04:39:02;;;;;;;0.52;0.52;;;;;;;18.71;60.93;101923.53;5015630;28;20029;-94
2021/09/08 04:41:29;;;;;;;0.40;0.40;;;;;;;18.66;60.63;101921.00;5014366;28;20034;-94
2021/09/08 04:43:56;;;;;;;0.20;0.20;;;;;;;18.64;61.08;101925.56;5013918;28;20484;-94
2021/09/08 04:46:22;;;;;;;0.30;0.30;;;;;;;18.63;60.80;101929.19;5013143;28;20526;-94
2021/09/08 04:48:48;;;;;;;0.15;0.15;;;;;;;18.61;60.87;101928.34;5014434;28;20140;-94
2021/09/08 04:51:14;;;;;;;0.10;0.10;;;;;;;18.60;60.98;101915.88;5014495;28;20022;-95
2021/09/08 04:53:40;;;;;;;0.28;0.28;;;;;;;18.61;61.01;101923.00;5014024;28;20038;-94
2021/09/08 04:56:07;;;;;;;0.35;0.35;;;;;;;18.59;60.79;101919.47;5014175;28;20030;-92
2021/09/08 04:58:33;;;;;;;1.25;0.45;;;;;;;18.57;61.00;101919.53;5013872;28;20103;-94
2021/09/08 05:00:59;;;;;;;0.40;0.40;;;;;;;18.57;60.77;101921.34;5013916;28;20070;-94
2021/09/08 05:03:25;;;;;;;0.10;0.10;;;;;;;18.58;61.03;101925.81;5014030;28;20542;-93
2021/09/08 05:05:51;;;;;;;0.20;0.20;;;;;;;18.57;61.07;101926.72;5013880;28;20026;-94
2021/09/08 05:08:17;;;;;;;0.08;0.08;;;;;;;18.56;61.07;101924.97;5013181;28;20029;-93
2021/09/08 05:10:44;;;;;;;0.45;0.45;;;;;;;18.55;61.30;101923.22;5013009;28;20038;-93
2021/09/08 05:13:10;;;;;;;0.73;0.73;;;;;;;18.55;61.03;101928.56;5013209;28;20370;-94
2021/09/08 05:15:36;;;;;;;1.40;1.40;;;;;;;18.54;60.91;101927.72;5013642;28;20036;-92
2021/09/08 05:18:02;;;;;;;0.10;0.10;;;;;;;18.55;60.98;101920.53;5013502;28;20030;-94
2021/09/08 05:20:28;;;;;;;0.10;0.10;;;;;;;18.55;61.27;101926.75;5012839;28;20133;-93
2021/09/08 05:22:55;;;;;;;0.10;0.10;;;;;;;18.56;61.20;101924.97;5012976;28;20117;-94
2021/09/08 05:25:21;;;;;;;0.20;0.20;;;;;;;18.64;61.10;101917.53;5013469;28;20109;-93
2021/09/08 05:27:47;;;;;;;0.10;0.10;;;;;;;18.68;60.88;101919.16;5013286;28;20036;-94
2021/09/08 05:30:13;;;;;;;0.00;0.00;;;;;;;18.70;61.04;101911.03;5013551;28;20029;-94
2021/09/08 05:32:39;;;;;;;0.80;0.80;;;;;;;18.73;61.00;101910.94;5012734;28;20034;-94
2021/09/08 05:35:06;;;;;;;0.00;0.00;;;;;;;18.73;60.77;101917.16;5012766;28;20084;-92
2021/09/08 05:37:33;;;;;;;0.00;0.00;;;;;;;18.74;60.86;101912.66;5011299;28;20156;-92
2021/09/08 05:39:59;;;;;;;0.90;0.52;;;;;;;18.76;60.96;101908.13;5007791;28;20032;-92
2021/09/08 05:42:25;;;;;;;0.30;0.30;;;;;;;18.81;60.75;101899.91;5011889;28;20152;-93
2021/09/08 05:44:51;;;;;;;0.15;0.15;;;;;;;18.80;61.01;101906.19;5011363;28;20053;-91
2021/09/08 05:47:18;;;;;;;0.20;0.20;;;;;;;18.82;61.05;101904.34;5011522;28;20033;-94
2021/09/08 05:49:44;;;;;;;0.47;0.47;;;;;;;18.84;61.22;101899.78;5011217;28;20034;-94
2021/09/08 05:52:10;;;;;;;0.30;0.30;;;;;;;18.86;61.04;101905.97;5011675;28;20080;-93
2021/09/08 05:54:37;;;;;;;0.10;0.10;;;;;;;18.88;60.92;101907.66;5011177;28;20033;-94
2021/09/08 05:57:03;;;;;;;0.22;0.22;;;;;;;18.91;61.05;101904.00;5011384;28;20393;-94
2021/09/08 05:59:29;;;;;;;0.95;0.95;;;;;;;18.94;61.09;101903.03;5011244;28;20041;-93
2021/09/08 06:01:55;;;;;;;0.68;0.68;;;;;;;18.95;61.01;101905.63;5011049;28;20033;-92
2021/09/08 06:04:21;;;;;;;3.10;1.35;;;;;;;18.98;61.16;101900.16;5011655;28;20026;-92
2021/09/08 06:06:47;;;;;;;0.10;0.10;;;;;;;19.01;61.03;101905.41;5011342;28;20030;-90
2021/09/08 06:09:13;;;;;;;0.77;0.77;;;;;;;19.03;61.03;101897.31;5011520;28;20034;-91
2021/09/08 06:11:40;;;;;;;0.77;0.77;;;;;;;19.07;61.07;101897.09;5011363;28;20073;-91
2021/09/08 06:14:07;;;;;;;0.10;0.10;;;;;;;19.10;61.14;101903.31;5011293;28;20026;-90
2021/09/08 06:16:33;;;;;;;0.32;0.32;;;;;;;19.12;61.03;101898.75;5011217;28;20458;-92
2021/09/08 06:18:59;;;;;;;1.55;0.95;;;;;;;19.11;61.33;101907.75;5011407;28;20034;-90
2021/09/08 06:21:25;;;;;;;0.05;0.05;;;;;;;19.14;61.04;101902.25;5011177;28;20102;-92
2021/09/08 06:23:51;;;;;;;0.10;0.10;;;;;;;19.18;61.38;101895.84;5011068;28;20358;-90
2021/09/08 06:26:18;;;;;;;0.30;0.30;;;;;;;19.22;61.63;101902.81;5012743;28;20088;-92
2021/09/08 06:28:44;;;;;;;2.10;1.35;;;;;;;19.27;61.56;101894.59;5013941;28;20327;-90
2021/09/08 06:31:10;;;;;;;0.13;0.13;;;;;;;19.32;61.31;101892.59;5012241;28;20100;-90
2021/09/08 06:33:38;;;;;;;0.10;0.10;;;;;;;19.36;61.05;101895.06;5011055;28;20065;-90
2021/09/08 06:36:04;;;;;;;0.10;0.10;;;;;;;19.45;61.12;101898.34;5011210;28;20319;-91
2021/09/08 06:38:30;;;;;;;0.00;0.00;;;;;;;19.49;60.98;101890.09;5011356;28;20030;-90
2021/09/08 06:40:58;;;;;;;2.85;0.68;;;;;;;19.54;60.64;101885.41;5011098;28;20030;-91
2021/09/08 06:43:25;;;;;;;0.05;0.05;;;;;;;19.60;60.74;101876.22;5010806;28;20534;-93
2021/09/08 06:45:52;;;;;;;0.10;0.10;;;;;;;19.64;61.20;101877.84;5012014;28;20580;-91
2021/09/08 06:48:20;;;;;;;0.20;0.20;;;;;;;19.72;60.71;101878.38;5014918;28;20057;-91
2021/09/08 06:50:46;;;;;;;0.20;0.20;;;;;;;19.79;60.50;101886.16;5015118;28;20034;-84
2021/09/08 06:53:12;;;;;;;0.22;0.22;;;;;;;19.87;60.65;101879.56;5015363;28;20034;-93
2021/09/08 06:55:38;;;;;;;0.30;0.30;;;;;;;19.92;60.58;101879.38;5014170;28;20033;-92
2021/09/08 06:58:04;;;;;;;0.70;0.70;;;;;;;19.99;60.33;101872.78;5013212;28;20030;-92
2021/09/08 07:00:32;;;;;;;0.85;0.85;;;;;;;20.03;60.64;101871.72;5013675;28;20034;-91
2021/09/08 07:03:00;;;;;;;0.60;0.60;;;;;;;20.09;60.21;101869.69;5014258;28;20032;-94
2021/09/08 07:05:26;;;;;;;0.30;0.30;;;;;;;20.14;60.44;101867.69;5013741;28;20092;-93
2021/09/08 07:07:52;;;;;;;0.13;0.13;;;;;;;20.16;60.77;101865.78;5013371;28;20036;-91
2021/09/08 07:10:18;;;;;;;0.15;0.15;;;;;;;20.24;60.40;101862.75;5012969;28;20052;-91
2021/09/08 07:12:45;;;;;;;0.20;0.20;;;;;;;20.30;60.43;101860.69;5014175;28;20401;-92
2021/09/08 07:15:12;;;;;;;1.40;1.05;;;;;;;20.35;60.45;101864.03;5013125;28;20049;-91
2021/09/08 07:17:38;;;;;;;0.20;0.20;;;;;;;20.39;60.72;101851.31;5012731;28;20072;-92
2021/09/08 07:20:05;;;;;;;0.38;0.38;;;;;;;20.44;60.37;101854.66;5012230;28;20381;-92
2021/09/08 07:22:32;;;;;;;1.83;1.73;;;;;;;20.49;60.35;101857.16;5013098;28;20041;-93
2021/09/08 07:24:58;;;;;;;0.20;0.20;;;;;;;20.59;60.01;101855.78;5014211;28;20026;-91
2021/09/08 07:27:25;;;;;;;1.30;1.15;;;;;;;20.62;60.24;101852.97;5013276;28;20056;-85
2021/09/08 07:29:51;;;;;;;6.03;0.68;;;;;;;20.65;60.54;101847.44;5013324;28;20040;-93
2021/09/08 07:32:17;;;;;;;0.77;0.77;;;;;;;20.79;60.31;101852.19;5013646;28;20082;-94
2021/09/08 07:34:44;;;;;;;0.82;0.60;;;;;;;20.90;59.71;101843.59;5013257;28;20573;-96
2021/09/08 07:37:10;;;;;;;0.40;0.40;;;;;;;21.01;59.33;101841.28;5013893;28;20120;-94
2021/09/08 07:39:36;;;;;;;2.00;1.60;;;;;;;21.06;59.73;101838.38;5013012;28;20540;-93
2021/09/08 07:42:03;;;;;;;0.40;0.40;;;;;;;21.07;59.74;101844.63;5013381;28;20380;-96
2021/09/08 07:44:29;;;;;;;0.43;0.43;;;;;;;21.23;59.24;101833.97;5013320;28;20040;-85
2021/09/08 07:46:56;;;;;;;0.68;0.68;;;;;;;21.40;58.92;101838.53;5013408;28;20030;-89
2021/09/08 07:49:22;;;;;;;0.20;0.20;;;;;;;21.47;58.89;101831.84;5015032;28;20120;-86
2021/09/08 07:51:49;;;;;;;0.57;0.57;;;;;;;21.54;59.07;101833.28;4996373;28;20038;-94
2021/09/08 07:54:15;;;;;;;0.70;0.70;;;;;;;21.68;58.32;101827.22;5013027;28;20037;-95
2021/09/08 07:56:41;;;;;;;0.17;0.17;;;;;;;21.82;58.11;101837.34;5013399;28;20394;-95
2021/09/08 07:59:10;;;;;;;0.57;0.57;;;;;;;21.93;57.86;101829.56;5010686;28;20037;-95
2021/09/08 08:01:39;;;;;;;0.85;0.85;;;;;;;22.05;57.69;101827.16;5013452;28;20065;-89
2021/09/08 08:04:06;;;;;;;0.28;0.28;;;;;;;22.08;57.56;101835.97;5011514;28;20030;-88
2021/09/08 08:06:32;;;;;;;3.65;1.13;;;;;;;22.16;57.55;101829.25;5013151;28;20092;-90
2021/09/08 08:08:58;;;;;;;0.40;0.40;;;;;;;22.25;57.25;101840.44;5010586;28;20045;-90
2021/09/08 08:11:31;;;;;;;0.77;0.77;;;;;;;22.30;57.17;101841.06;5010457;28;20116;-91
2021/09/08 08:14:13;;;;;;;3.13;1.52;;;;;;;22.30;56.99;101838.38;5011901;28;20053;-91
2021/09/08 08:16:40;;;;;;;1.17;0.98;;;;;;;22.41;56.92;101845.06;5011396;28;20473;-93
2021/09/08 08:19:06;;;;;;;0.63;0.63;;;;;;;22.49;56.97;101836.53;5010122;28;20030;-89
2021/09/08 08:24:12;;;;;;;0.22;0.20;;;;;;;22.73;56.61;101829.78;4965369;28;20042;-81
2021/09/08 08:26:39;;;;;;;0.55;0.55;;;;;;;22.73;56.27;101834.28;4971736;28;20085;-83
2021/09/08 08:29:05;;;;;;;0.47;0.47;;;;;;;22.83;55.86;101827.44;4972667;28;20081;-82
2021/09/08 08:31:32;;;;;;;0.65;0.65;;;;;;;22.99;56.12;101830.16;4971953;28;20042;-82
2021/09/08 08:33:58;;;;;;;0.68;0.68;;;;;;;23.15;55.82;101829.25;4973724;28;20382;-82
2021/09/08 08:36:24;;;;;;;0.40;0.40;;;;;;;23.28;55.70;101824.94;4973778;28;20046;-82
2021/09/08 08:38:50;;;;;;;0.10;0.10;;;;;;;23.42;55.62;101824.97;4973261;28;20521;-81
2021/09/08 08:41:17;;;;;;;0.38;0.38;;;;;;;23.53;55.31;101824.34;4972928;28;20046;-83
2021/09/08 08:43:44;;;;;;;0.10;0.10;;;;;;;23.67;55.19;101819.94;4970480;28;20042;-81
2021/09/08 08:46:10;;;;;;;0.28;0.28;;;;;;;23.79;55.00;101816.50;4971151;28;20544;-81
2021/09/08 08:48:37;;;;;;;0.30;0.30;;;;;;;23.85;53.74;101818.84;4972875;28;20390;-85
2021/09/08 08:51:03;;;;;;;0.40;0.40;;;;;;;24.02;54.52;101820.53;4972149;28;20078;-82
2021/09/08 08:53:31;;;;;;;0.73;0.57;;;;;;;24.13;54.59;101824.44;4972039;28;20073;-84
2021/09/08 08:56:02;;;;;;;1.33;0.57;;;;;;;24.27;54.18;101823.56;4970724;28;20043;-84
2021/09/08 08:58:28;;;;;;;1.65;0.90;;;;;;;24.36;54.06;101820.25;4972044;28;20027;-83
2021/09/08 09:01:19;;;;;;;0.20;0.20;;;;;;;24.51;53.36;101819.31;4972708;28;20035;-84
2021/09/08 09:06:42;;;;;;;0.10;0.10;;;;;;;24.68;52.91;101814.66;5086300;27;20459;-81
2021/09/08 09:09:13;;;;;;;2.60;1.55;;;;;;;24.78;53.45;101815.81;5067180;28;20132;-83
2021/09/08 09:11:42;;;;;;;0.25;0.25;;;;;;;24.88;52.75;101813.38;5066081;28;20032;-83
2021/09/08 09:14:09;;;;;;;0.20;0.20;;;;;;;24.93;52.88;101807.66;5052910;28;20037;-83
2021/09/08 09:16:39;;;;;;;0.17;0.17;;;;;;;25.05;52.77;101815.00;5043235;28;20022;-87
2021/09/08 09:19:07;;;;;;;1.73;1.63;;;;;;;25.12;52.47;101813.63;5032392;28;20033;-84
2021/09/08 09:21:34;;;;;;;0.68;0.68;;;;;;;25.24;52.39;101805.63;5039187;28;20036;-82
2021/09/08 09:24:03;;;;;;;1.13;1.13;;;;;;;25.34;51.98;101804.88;5037497;28;20033;-84
2021/09/08 09:26:35;;;;;;;0.65;0.65;;;;;;;25.47;51.97;101794.13;5039967;28;20542;-87
2021/09/08 09:31:54;;;;;;;3.50;1.88;;;;;;;25.70;51.23;101788.94;5064674;28;20407;-88
2021/09/08 09:34:21;;;;;;;2.50;1.27;;;;;;;25.82;51.85;101785.38;5051387;28;20060;-81
2021/09/08 09:36:53;;;;;;;1.60;0.55;;;;;;;25.91;50.92;101788.44;5045831;28;20039;-80
2021/09/08 09:39:22;;;;;;;0.47;0.47;;;;;;;26.03;50.90;101790.25;5030128;28;20056;-81
2021/09/08 09:41:48;;;;;;;0.52;0.52;;;;;;;26.13;50.52;101788.69;5030136;28;20455;-80
2021/09/08 09:44:15;;;;;;;4.60;0.98;;;;;;;26.20;49.62;101782.81;5045874;28;20033;-86
2021/09/08 09:46:43;;;;;;;0.50;0.50;;;;;;;26.29;49.94;101782.13;5032169;28;20425;-88
2021/09/08 09:49:11;;;;;;;0.30;0.30;;;;;;;26.45;49.87;101785.47;5034153;28;20484;-84
2021/09/08 09:51:39;;;;;;;0.55;0.55;;;;;;;26.48;50.10;101779.81;5039357;28;20033;-87
2021/09/08 09:54:05;;;;;;;0.20;0.20;;;;;;;26.57;48.12;101782.88;5041340;28;20029;-90
2021/09/08 09:56:32;;;;;;;0.20;0.20;;;;;;;26.67;49.34;101778.47;5039912;28;20033;-86
2021/09/08 09:58:59;;;;;;;0.20;0.20;;;;;;;26.75;49.07;101778.78;5031342;28;20167;-86
2021/09/08 10:01:25;;;;;;;1.35;1.27;;;;;;;26.70;49.27;101778.25;5034769;28;20439;-88
2021/09/08 10:03:52;;;;;;;0.43;0.43;;;;;;;26.83;48.70;101771.91;5030583;28;20033;-91
2021/09/08 10:06:20;;;;;;;1.25;0.73;;;;;;;26.87;46.79;101770.72;5035674;28;20056;-91
2021/09/08 10:08:50;;;;;;;0.28;0.28;;;;;;;27.07;48.28;101769.22;5037348;28;20033;-89
2021/09/08 10:11:33;;;;;;;0.10;0.10;;;;;;;27.19;47.88;101761.97;5035404;28;20048;-92
2021/09/08 10:14:04;;;;;;;1.45;0.63;;;;;;;27.29;48.14;101763.00;5036264;28;20060;-88
2021/09/08 10:16:32;;;;;;;0.10;0.10;;;;;;;27.31;47.59;101760.19;5037967;28;20033;-88
2021/09/08 10:19:04;;;;;;;0.40;0.40;;;;;;;27.38;46.76;101761.44;5039201;28;20415;-89
2021/09/08 10:21:30;;;;;;;;;;;;;;;27.61;46.13;101756.94;5039468;28;20038;-86
2021/09/08 10:23:59;;;;;;;1.05;1.02;;;;;;;27.47;46.38;101746.28;5037522;28;19917;-84
2021/09/08 10:26:29;;;;;;;0.47;0.47;;;;;;;27.55;46.45;101743.81;5037793;28;20090;-85
2021/09/08 10:29:04;;;;;;;1.30;1.00;;;;;;;27.63;46.26;101740.50;5044880;28;20037;-84
2021/09/08 10:31:36;;;;;;;2.42;2.28;;;;;;;27.72;45.54;101732.47;5043855;28;20112;-84
2021/09/08 10:34:04;;;;;;;0.37;0.37;;;;;;;27.87;45.72;101730.38;5037243;28;20075;-84
2021/09/08 10:36:31;;;;;;;0.55;0.55;;;;;;;27.93;45.54;101729.88;5031221;28;20029;-80
2021/09/08 10:39:18;;;;;;;0.17;0.17;;;;;;;28.18;45.42;101724.38;5034999;28;20058;-85
2021/09/08 10:41:50;;;;;;;3.50;1.27;;;;;;;28.22;45.34;101714.94;5025089;28;20424;-84
2021/09/08 10:44:20;;;;;;;0.90;0.85;;;;;;;28.32;45.55;101715.91;5018339;28;20034;-85
2021/09/08 10:46:49;;;;;;;1.65;1.20;;;;;;;28.43;44.82;101716.91;5025147;28;20041;-84
2021/09/08 10:52:36;;;;;;;0.40;0.40;;;;;;;28.69;43.50;101699.28;5022551;27;1294660;-84
2021/09/08 11:00:34;;;;;;;0.30;0.30;;;;;;;29.10;42.84;101679.50;5101666;27;20837;-85
2021/09/08 11:03:00;;;;;;;;;;;;;;;29.29;42.55;101676.09;5069691;28;20035;-84
2021/09/08 11:05:26;;;;;;;0.10;0.10;;;;;;;29.25;42.95;101683.66;5069138;28;19951;-83
2021/09/08 11:07:53;;;;;;;0.25;0.25;;;;;;;29.39;42.73;101668.84;5069234;28;20032;-84
2021/09/08 11:13:08;;;;;;;0.30;0.30;;;;;;;29.53;41.86;101670.34;5089691;27;20401;-83
2021/09/08 11:15:37;;;;;;;0.77;0.77;;;;;;;29.48;39.73;101664.44;5093309;28;20333;-82
2021/09/08 11:18:10;;;;;;;1.05;1.00;;;;;;;29.36;40.31;101664.50;5093622;28;20119;-84
2021/09/08 11:20:37;;;;;;;0.68;0.68;;;;;;;29.52;40.56;101657.69;5099431;28;20039;-82
2021/09/08 11:23:06;;;;;;;0.40;0.40;;;;;;;29.48;40.27;101662.56;5085358;28;20123;-83
2021/09/08 11:25:35;;;;;;;0.95;0.90;;;;;;;29.54;40.25;101656.56;5082681;28;20121;-83
2021/09/08 11:28:02;;;;;;;0.50;0.50;;;;;;;29.72;40.34;101658.69;5087234;28;20403;-86
2021/09/08 11:30:32;;;;;;;2.00;1.30;;;;;;;29.82;40.54;101653.22;5075015;28;20028;-86
2021/09/08 11:33:29;;;;;;;0.10;0.10;;;;;;;29.81;38.58;101651.53;5085623;28;20506;-84
2021/09/08 11:35:55;;;;;;;0.10;0.10;;;;;;;29.92;39.23;101650.56;5077057;28;20049;-87
2021/09/08 11:41:05;;;;;;;0.25;0.25;;;;;;;30.06;39.42;101649.31;5081731;28;20398;-83
2021/09/08 11:43:35;;;;;;;0.10;0.10;;;;;;;29.97;38.40;101643.72;5040538;28;20064;-86
2021/09/08 11:46:12;;;;;;;1.38;0.93;;;;;;;30.26;38.53;101642.91;5029016;28;20052;-91
2021/09/08 11:48:38;;;;;;;2.33;0.98;;;;;;;30.25;37.50;101641.19;5030014;28;20037;-86
2021/09/08 11:51:06;;;;;;;0.45;0.45;;;;;;;30.39;38.47;101628.97;5029570;28;20037;-85